Strona główna
METAR-TAF:

METAR-TAF

Lotnisko :

Port lotniczy Eindhoven

Eindhoven, Holandia

Szerokość geograficzna: 51-27N, Długość geograficzna: 005-25E, wysokość: 23 m

Aktualna obserwacja pogody

Raport powstał 22 minut temu, godzina 08:25 UTC
Wiatr 10 kt od wschodnio-północny wschód, zmienny między północno-północny wschód i wschód
Temperatura 16°C
Wilgotność 48%
Ciśnienie 1035 hPa
Widzialność 10 km lub więcej
Brak chmur poniżej 1500 m i brak chmur cumulonimbus

METAR: EHEH 280825Z AUTO 05010KT 020V100 9999 NCD 16/05 Q1035 BLU 06010KT CAVOK TEMPO 06010G20KT

czas: 10:47 (08:47 UTC)

Prognoza

Raport powstał 6 godziny i 30 minut temu, godzina 02:17 UTC
Prognoza ważna od 28 godzina 03 UTC do 29 godzina 09 UTC
Wiatr 8 kt od północny wschód
Widzialność 10 km lub więcej
Brak chmur poniżej 1500 m i brak chmur cumulonimbus
Przejściowo
od 28 godzina 07 UTC do 28 godzina 20 UTC
Wiatr 9 kt od północny wschód w porywach dochodzący do 20 kt

TAF: EHEH 280217Z 2803/2909 04008KT CAVOK TEMPO 2807/2820 04009G20KT

Obserwacja i prognoza pogody dla ponad 4000 lotnisk (raport METAR i TAF).

Dostępne stacje oznaczono żółtymi i czerwonymi punktami na mapie.

Najedź kursorem aby zobaczyć nazwę stacji.

Kliknij aby zobaczyć obserwacje i prognozy pogody.

Aby zmienić mapę: kliknij na zielony przycisk z czarnym krzyżykiem, aby powiększyć; na zielony przycisk z myślnikiem, aby pomniejszyć; na zielone strzałki, aby przejść do map sąsiednich.


METAR-TAF: